Hazelhurst, Wisconsin
Current Conditions -  °F | °C
As of 6:15 PM on Wednesday 26 Nov 2014 (Local Time) from KARV Reporting Station
Light Snow Light Snow  
Wind Chill: 12°   Ceiling: 1100
Heat Index: 23°   Visibility: 2mi
Dew Point: 20°   Wind: 12mph
Humidity: 89%   Direction: 330°NNW
Pressure: 30.15"   Gusts: NA
Location:  45.81°N, 89.73°W
Report Text: KARV 270015Z AUTO 33010KT 2SM -SN BKN011 OVC017 M05/M06 A3015 RMK AO2 VIS 1 1/2V3 T10501065
Loading
Personal Weather Stations






























Interactive Weather Map New forecast layout! Learn more

10-Day Weather Forecast

Advertisements
Track Severe Weather on mobile